Time;durP1;ratioP1;P1;durP2;ratioP2;P2;SDS_P1;SDS_P2;PMS_P1;PMS_P2;Temp;Humidity;BMP_temperature;BMP_pressure;BME280_temperature;BME280_humidity;BME280_pressure;Samples;Min_cycle;Max_cycle;Signal;HPM_P1;HPM_P2
2022/10/23 00:07:07;;;;;;;7.93;2.70;;;12.60;99.90;;;;;;21020557;28;20029;-78
2022/10/23 00:17:09;;;;;;;4.73;2.70;;;12.50;99.90;;;;;;21003940;28;20032;-78
2022/10/23 00:27:10;;;;;;;12.98;3.10;;;12.40;99.90;;;;;;20999603;28;20032;-79
2022/10/23 00:37:11;;;;;;;13.50;4.73;;;12.40;99.90;;;;;;21004038;28;20036;-79
2022/10/23 00:47:13;;;;;;;6.60;2.20;;;12.30;99.90;;;;;;21005012;28;20402;-79
2022/10/23 00:57:14;;;;;;;4.22;2.17;;;12.30;99.90;;;;;;21003143;28;20036;-79
2022/10/23 01:07:27;;;;;;;7.00;2.70;;;12.10;99.90;;;;;;21003985;28;20499;-79
2022/10/23 01:17:41;;;;;;;12.70;3.03;;;12.20;99.90;;;;;;20985032;28;20495;-78
2022/10/23 01:27:50;;;;;;;10.43;2.60;;;12.20;99.90;;;;;;21002628;28;20035;-78
2022/10/23 01:37:54;;;;;;;9.25;2.60;;;12.00;99.90;;;;;;21006855;28;20029;-78
2022/10/23 01:47:56;;;;;;;7.95;2.88;;;11.90;99.90;;;;;;21021370;28;20399;-79
2022/10/23 01:58:01;;;;;;;6.10;2.47;;;11.80;99.90;;;;;;21015662;28;20509;-79
2022/10/23 02:08:09;;;;;;;3.28;2.28;;;11.60;99.90;;;;;;21016485;28;20025;-79
2022/10/23 02:18:29;;;;;;;4.63;2.50;;;11.50;99.90;;;;;;21014949;28;20033;-78
2022/10/23 02:28:38;;;;;;;7.28;2.88;;;11.40;99.90;;;;;;20965164;28;20037;-78
2022/10/23 02:38:41;;;;;;;4.13;2.20;;;11.40;99.90;;;;;;21065241;28;20518;-78
2022/10/23 02:48:51;;;;;;;14.40;2.35;;;11.40;99.90;;;;;;21043412;28;20039;-78
2022/10/23 02:59:30;;;;;;;7.30;2.03;;;11.60;99.90;;;;;;21028500;28;20036;-78
2022/10/23 03:09:31;;;;;;;10.27;1.85;;;11.30;99.90;;;;;;21008779;28;20120;-79
2022/10/23 03:19:32;;;;;;;12.23;2.30;;;11.30;99.90;;;;;;21007517;28;20077;-80
2022/10/23 03:29:33;;;;;;;4.97;2.20;;;11.30;99.90;;;;;;21007251;28;20042;-79
2022/10/23 03:39:34;;;;;;;4.53;1.83;;;11.10;99.90;;;;;;21008123;28;20040;-79
2022/10/23 03:49:35;;;;;;;5.17;2.03;;;11.00;99.90;;;;;;21009523;28;20020;-79
2022/10/23 03:59:40;;;;;;;4.22;1.70;;;10.90;99.90;;;;;;21004897;28;20039;-78
2022/10/23 04:09:41;;;;;;;;;;;10.90;99.90;;;;;;20988584;28;20024;-79
2022/10/23 04:19:42;;;;;;;5.55;2.00;;;10.80;99.90;;;;;;21002466;28;19995;-80
2022/10/23 04:29:43;;;;;;;5.07;2.07;;;10.70;99.90;;;;;;21016151;22;20059;-77
2022/10/23 04:39:44;;;;;;;6.13;1.60;;;10.70;99.90;;;;;;20917512;28;20040;-77
2022/10/23 04:49:47;;;;;;;6.15;2.00;;;10.80;99.90;;;;;;20793520;28;20569;-76
2022/10/23 05:00:11;;;;;;;3.55;1.48;;;10.80;99.90;;;;;;20808309;28;20095;-77
2022/10/23 05:10:23;;;;;;;6.22;1.80;;;10.80;99.90;;;;;;20807590;28;20051;-77
2022/10/23 05:20:46;;;;;;;8.82;2.42;;;10.70;99.90;;;;;;20824459;28;20400;-77
2022/10/23 05:30:47;;;;;;;11.73;2.75;;;10.50;99.90;;;;;;20824621;28;20053;-77
2022/10/23 05:40:51;;;;;;;4.28;1.95;;;10.30;99.90;;;;;;20806021;28;20669;-77
2022/10/23 05:50:54;;;;;;;5.03;2.17;;;10.20;99.90;;;;;;20805693;28;20030;-77
2022/10/23 06:01:05;;;;;;;5.97;2.25;;;10.20;99.90;;;;;;20806557;28;20033;-77
2022/10/23 06:11:28;;;;;;;10.95;2.90;;;10.10;99.90;;;;;;20822268;28;20060;-76
2022/10/23 06:21:36;;;;;;;6.80;4.38;;;10.00;99.90;;;;;;20840643;28;20029;-77
2022/10/23 06:31:38;;;;;;;6.78;4.68;;;10.00;99.90;;;;;;20891327;28;20029;-76
2022/10/23 06:41:40;;;;;;;5.30;3.20;;;10.20;99.90;;;;;;20852797;28;20029;-76
2022/10/23 06:51:42;;;;;;;6.25;3.70;;;10.30;99.90;;;;;;20817602;28;20039;-77
2022/10/23 07:01:46;;;;;;;12.48;3.65;;;10.50;99.90;;;;;;20816762;28;20503;-77
2022/10/23 07:11:49;;;;;;;4.65;3.03;;;10.40;99.90;;;;;;20817027;28;20034;-76
2022/10/23 07:21:50;;;;;;;5.07;3.25;;;11.00;99.90;;;;;;20822836;28;20030;-75
2022/10/23 07:32:03;;;;;;;44.97;4.30;;;10.70;99.90;;;;;;20819410;28;20053;-75
2022/10/23 07:42:04;;;;;;;;;;;10.50;99.90;;;;;;20854329;28;20037;-76
2022/10/23 07:52:05;;;;;;;15.52;3.67;;;10.30;99.90;;;;;;20861517;28;19951;-76
2022/10/23 08:02:23;;;;;;;48.03;6.20;;;10.50;99.90;;;;;;20894245;28;20060;-75
2022/10/23 08:12:24;;;;;;;4.80;3.10;;;10.80;99.90;;;;;;20868820;28;20435;-76
2022/10/23 08:22:25;;;;;;;50.47;5.10;;;11.60;99.90;;;;;;20883702;28;20037;-76
2022/10/23 08:32:29;;;;;;;6.87;4.73;;;11.90;99.90;;;;;;20893101;28;20067;-77
2022/10/23 08:42:37;;;;;;;14.60;5.45;;;11.70;99.90;;;;;;20910930;28;20033;-77
2022/10/23 08:52:43;;;;;;;11.45;6.55;;;11.80;99.90;;;;;;20891153;28;20490;-77
2022/10/23 09:02:50;;;;;;;52.78;9.02;;;11.80;99.90;;;;;;20908886;28;20062;-77
2022/10/23 09:12:51;;;;;;;11.95;7.30;;;12.10;99.90;;;;;;20907488;28;20033;-76
2022/10/23 09:23:01;;;;;;;15.53;7.57;;;12.20;99.90;;;;;;20895240;28;20475;-77
2022/10/23 09:33:13;;;;;;;10.98;7.40;;;12.30;99.90;;;;;;20906365;28;20075;-77
2022/10/23 09:43:17;;;;;;;12.07;6.90;;;12.60;99.90;;;;;;20826269;28;20086;-78
2022/10/23 09:53:22;;;;;;;12.25;6.45;;;13.20;99.90;;;;;;20805840;28;20048;-75
2022/10/23 10:03:24;;;;;;;31.15;12.65;;;12.80;99.90;;;;;;20833942;28;20036;-77
2022/10/23 10:13:37;;;;;;;9.57;5.73;;;13.50;99.90;;;;;;20835412;28;20032;-77
2022/10/23 10:23:40;;;;;;;9.77;5.95;;;13.80;99.90;;;;;;20882101;28;20392;-77
2022/10/23 10:34:03;;;;;;;8.48;5.47;;;14.50;99.90;;;;;;20877834;22;20056;-78
2022/10/23 10:44:45;;;;;;;5.10;3.72;;;14.70;99.90;;;;;;20891737;28;20098;-78
2022/10/23 10:55:13;;;;;;;6.83;3.23;;;16.40;99.90;;;;;;20753620;28;20046;-77
2022/10/23 11:05:30;;;;;;;6.03;2.95;;;17.10;99.90;;;;;;20916171;28;20057;-79
2022/10/23 11:15:39;;;;;;;9.45;3.35;;;18.00;99.90;;;;;;20893084;28;20082;-78
2022/10/23 11:25:55;;;;;;;6.10;3.67;;;16.10;99.90;;;;;;20889340;28;20099;-79
2022/10/23 11:35:59;;;;;;;7.15;3.33;;;15.90;99.90;;;;;;20876772;28;20372;-79
2022/10/23 11:46:21;;;;;;;5.55;3.22;;;16.10;99.90;;;;;;20877233;28;20029;-80
2022/10/23 11:56:25;;;;;;;8.80;3.50;;;15.90;99.90;;;;;;20875124;28;20376;-78
2022/10/23 12:06:36;;;;;;;5.15;2.95;;;15.60;99.90;;;;;;20900404;28;20045;-77
2022/10/23 12:16:37;;;;;;;5.97;4.20;;;15.70;99.90;;;;;;20857826;28;20033;-79
2022/10/23 12:26:57;;;;;;;5.70;3.50;;;15.50;99.90;;;;;;20872569;28;20032;-77
2022/10/23 12:37:16;;;;;;;8.48;3.72;;;15.20;99.90;;;;;;20869389;28;20044;-77
2022/10/23 12:47:18;;;;;;;5.50;3.15;;;14.70;99.90;;;;;;20868819;28;20043;-77
2022/10/23 12:57:29;;;;;;;5.53;3.03;;;14.70;99.90;;;;;;20866116;28;20096;-78
2022/10/23 13:07:34;;;;;;;8.67;3.23;;;14.90;99.90;;;;;;20866737;28;20079;-78
2022/10/23 13:17:43;;;;;;;12.85;4.88;;;14.90;99.90;;;;;;20864721;28;20030;-78
2022/10/23 13:27:43;;;;;;;5.15;3.80;;;15.20;99.90;;;;;;20861942;28;20033;-78
2022/10/23 13:37:44;;;;;;;10.53;4.60;;;15.00;99.90;;;;;;20915987;28;20112;-78
2022/10/23 13:47:45;;;;;;;12.40;4.30;;;14.90;99.90;;;;;;20893593;28;20028;-77
2022/10/23 13:57:46;;;;;;;7.43;3.50;;;14.80;99.90;;;;;;20907095;28;20033;-78
2022/10/23 14:07:47;;;;;;;8.77;4.37;;;15.20;99.90;;;;;;20887720;28;20025;-80
2022/10/23 14:17:47;;;;;;;11.40;4.63;;;17.20;99.90;;;;;;20880947;28;20036;-79
2022/10/23 14:27:48;;;;;;;10.50;4.90;;;16.80;99.90;;;;;;20873637;28;20036;-79
2022/10/23 14:37:49;;;;;;;6.77;4.43;;;15.70;99.90;;;;;;20880187;28;20466;-78
2022/10/23 14:47:50;;;;;;;15.50;5.23;;;15.50;99.90;;;;;;20865301;28;20028;-77
2022/10/23 14:57:54;;;;;;;13.77;4.30;;;15.20;99.90;;;;;;20918373;28;20029;-78
2022/10/23 15:07:57;;;;;;;9.18;4.22;;;15.10;99.90;;;;;;20916667;28;20046;-78
2022/10/23 15:17:58;;;;;;;6.53;3.58;;;14.90;99.90;;;;;;20874126;28;20490;-77
2022/10/23 15:27:58;;;;;;;5.63;2.80;;;14.90;99.90;;;;;;20915547;28;20083;-77
2022/10/23 15:37:59;;;;;;;7.47;2.83;;;14.90;99.90;;;;;;20900044;28;20037;-77
2022/10/23 15:48:00;;;;;;;5.17;3.33;;;14.90;99.90;;;;;;20838352;28;20029;-80
2022/10/23 15:58:03;;;;;;;7.25;4.18;;;14.70;99.90;;;;;;20886381;28;20040;-78
2022/10/23 16:08:05;;;;;;;5.68;3.28;;;14.60;99.90;;;;;;20866441;28;20073;-79
2022/10/23 16:18:07;;;;;;;6.38;3.00;;;14.50;99.90;;;;;;20828402;28;20052;-79
2022/10/23 16:28:08;;;;;;;9.80;3.30;;;14.50;99.90;;;;;;20828888;28;20491;-77
2022/10/23 16:38:09;;;;;;;5.87;3.43;;;14.50;99.90;;;;;;21065423;22;20044;-75
2022/10/23 16:48:10;;;;;;;12.50;3.07;;;14.40;99.90;;;;;;21010459;28;20032;-75
2022/10/23 16:58:11;;;;;;;4.50;2.83;;;14.50;99.90;;;;;;21076532;28;20044;-75
2022/10/23 17:08:11;;;;;;;6.73;3.30;;;14.50;99.90;;;;;;21058198;28;20460;-75
2022/10/23 17:18:12;;;;;;;3.83;2.70;;;14.60;99.90;;;;;;21102348;28;20115;-75
2022/10/23 17:28:13;;;;;;;8.23;2.70;;;14.60;99.90;;;;;;21037741;28;20030;-77
2022/10/23 17:38:18;;;;;;;3.97;2.30;;;14.70;99.90;;;;;;21035066;28;20032;-77
2022/10/23 17:48:18;;;;;;;7.32;1.77;;;14.80;99.90;;;;;;21041458;28;20032;-77
2022/10/23 17:58:19;;;;;;;7.17;3.03;;;14.70;99.90;;;;;;21042462;28;20454;-78
2022/10/23 18:08:20;;;;;;;9.10;3.87;;;14.60;99.90;;;;;;21027730;28;20119;-77
2022/10/23 18:18:21;;;;;;;9.97;5.27;;;14.60;99.90;;;;;;21036168;28;20031;-77
2022/10/23 18:28:22;;;;;;;6.60;3.10;;;14.50;99.90;;;;;;21050154;28;20027;-77
2022/10/23 18:38:23;;;;;;;7.47;2.85;;;14.30;99.90;;;;;;21058987;28;20092;-77
2022/10/23 18:48:23;;;;;;;9.57;2.87;;;14.20;99.90;;;;;;21036630;28;20048;-77
2022/10/23 18:58:24;;;;;;;5.07;3.03;;;14.20;99.90;;;;;;21034657;28;20020;-76
2022/10/23 19:08:25;;;;;;;8.57;3.07;;;14.00;99.90;;;;;;21041116;28;20044;-76
2022/10/23 19:18:27;;;;;;;7.97;3.17;;;14.00;99.90;;;;;;21040625;28;20080;-76
2022/10/23 19:28:27;;;;;;;4.40;2.80;;;14.30;99.90;;;;;;21040869;28;20038;-76
2022/10/23 19:38:28;;;;;;;6.37;3.93;;;14.30;99.90;;;;;;21037645;28;20032;-75
2022/10/23 19:48:29;;;;;;;9.90;3.50;;;14.30;99.90;;;;;;21023157;28;20066;-75
2022/10/23 19:58:30;;;;;;;11.87;2.00;;;14.50;99.90;;;;;;21038494;28;20025;-75
2022/10/23 20:08:31;;;;;;;2.70;1.03;;;15.50;99.90;;;;;;21034528;28;20058;-75
2022/10/23 20:18:33;;;;;;;4.87;1.30;;;17.30;99.90;;;;;;21034359;28;20506;-74
2022/10/23 20:28:34;;;;;;;7.68;1.20;;;17.80;99.90;;;;;;21034471;28;20032;-75
2022/10/23 20:38:35;;;;;;;13.45;1.38;;;17.60;99.90;;;;;;21032958;28;20578;-75
2022/10/23 20:48:37;;;;;;;7.93;1.00;;;17.50;99.90;;;;;;21092437;28;20024;-76
2022/10/23 20:58:38;;;;;;;8.20;1.92;;;17.10;99.90;;;;;;21074336;28;20481;-76
2022/10/23 21:08:40;;;;;;;5.23;1.13;;;17.80;99.90;;;;;;20990959;28;20054;-76
2022/10/23 21:18:41;;;;;;;5.38;1.20;;;17.20;99.90;;;;;;20972557;28;20048;-76
2022/10/23 21:28:46;;;;;;;4.17;0.93;;;17.00;99.90;;;;;;21061712;28;20028;-76
2022/10/23 21:39:00;;;;;;;5.55;0.88;;;16.70;99.90;;;;;;21157403;28;20440;-76
2022/10/23 21:49:02;;;;;;;11.43;1.23;;;16.20;99.90;;;;;;21157427;28;20082;-76
2022/10/23 21:59:05;;;;;;;;;;;16.00;99.90;;;;;;21168215;28;20553;-76
2022/10/23 22:09:06;;;;;;;;;;;16.00;99.90;;;;;;21154900;28;19919;-76
2022/10/23 22:19:08;;;;;;;8.23;1.15;;;15.90;99.90;;;;;;21043249;28;20324;-76
2022/10/23 22:29:12;;;;;;;12.23;1.40;;;15.90;99.90;;;;;;21023382;28;20119;-75
2022/10/23 22:39:13;;;;;;;10.43;1.23;;;16.10;99.90;;;;;;21043727;28;20082;-74
2022/10/23 22:49:14;;;;;;;8.40;1.37;;;15.80;99.90;;;;;;21038687;28;20122;-76
2022/10/23 22:59:15;;;;;;;9.07;2.33;;;15.80;99.90;;;;;;21040943;28;20507;-75
2022/10/23 23:09:17;;;;;;;6.73;1.20;;;15.70;99.90;;;;;;21072058;28;20032;-75
2022/10/23 23:19:18;;;;;;;12.32;1.88;;;16.00;99.90;;;;;;21082975;28;20028;-76
2022/10/23 23:29:19;;;;;;;9.30;1.80;;;15.50;99.90;;;;;;21063558;28;20039;-76
2022/10/23 23:39:20;;;;;;;10.70;2.40;;;15.20;99.90;;;;;;21080888;28;20043;-76
2022/10/23 23:49:21;;;;;;;8.07;2.10;;;15.10;99.90;;;;;;21079965;28;20553;-76
2022/10/23 23:59:22;;;;;;;10.83;2.00;;;15.00;99.90;;;;;;21080012;28;20028;-76
